sensor_id;sensor_type;location;lat;lon;timestamp;P1;durP1;ratioP1;P2;durP2;ratioP2
47635;SDS011;33364;50.766;15.338;2023-06-14T00:00:51;3.35;;;2.20;;
47635;SDS011;33364;50.766;15.338;2023-06-14T00:03:38;6.70;;;3.00;;
47635;SDS011;33364;50.766;15.338;2023-06-14T00:06:04;4.65;;;2.47;;
47635;SDS011;33364;50.766;15.338;2023-06-14T00:08:30;4.78;;;2.90;;
47635;SDS011;33364;50.766;15.338;2023-06-14T00:10:55;3.38;;;2.70;;
47635;SDS011;33364;50.766;15.338;2023-06-14T00:13:21;5.65;;;2.90;;
47635;SDS011;33364;50.766;15.338;2023-06-14T00:15:47;7.22;;;2.65;;
47635;SDS011;33364;50.766;15.338;2023-06-14T00:18:13;6.90;;;3.33;;
47635;SDS011;33364;50.766;15.338;2023-06-14T00:20:40;5.00;;;2.90;;
47635;SDS011;33364;50.766;15.338;2023-06-14T00:23:07;7.20;;;2.85;;
47635;SDS011;33364;50.766;15.338;2023-06-14T00:25:33;3.80;;;2.90;;
47635;SDS011;33364;50.766;15.338;2023-06-14T00:27:59;4.57;;;2.50;;
47635;SDS011;33364;50.766;15.338;2023-06-14T00:30:24;5.07;;;3.03;;
47635;SDS011;33364;50.766;15.338;2023-06-14T00:32:51;4.10;;;2.83;;
47635;SDS011;33364;50.766;15.338;2023-06-14T00:35:16;3.05;;;2.58;;
47635;SDS011;33364;50.766;15.338;2023-06-14T00:37:42;5.90;;;2.70;;
47635;SDS011;33364;50.766;15.338;2023-06-14T00:40:08;7.22;;;2.63;;
47635;SDS011;33364;50.766;15.338;2023-06-14T00:42:34;5.50;;;2.80;;
47635;SDS011;33364;50.766;15.338;2023-06-14T00:45:00;5.43;;;2.88;;
47635;SDS011;33364;50.766;15.338;2023-06-14T00:47:26;3.65;;;2.80;;
47635;SDS011;33364;50.766;15.338;2023-06-14T00:49:53;6.40;;;3.28;;
47635;SDS011;33364;50.766;15.338;2023-06-14T00:52:20;5.28;;;2.63;;
47635;SDS011;33364;50.766;15.338;2023-06-14T00:54:46;3.05;;;2.50;;
47635;SDS011;33364;50.766;15.338;2023-06-14T00:57:12;5.43;;;3.05;;
47635;SDS011;33364;50.766;15.338;2023-06-14T00:59:48;3.72;;;2.40;;
47635;SDS011;33364;50.766;15.338;2023-06-14T01:02:14;5.57;;;3.00;;
47635;SDS011;33364;50.766;15.338;2023-06-14T01:04:41;3.78;;;2.85;;
47635;SDS011;33364;50.766;15.338;2023-06-14T01:15:49;4.25;;;2.63;;
47635;SDS011;33364;50.766;15.338;2023-06-14T01:18:17;3.22;;;2.92;;
47635;SDS011;33364;50.766;15.338;2023-06-14T01:20:43;5.20;;;2.92;;
47635;SDS011;33364;50.766;15.338;2023-06-14T01:23:11;4.25;;;3.00;;
47635;SDS011;33364;50.766;15.338;2023-06-14T01:25:37;4.00;;;2.85;;
47635;SDS011;33364;50.766;15.338;2023-06-14T01:28:05;3.13;;;2.38;;
47635;SDS011;33364;50.766;15.338;2023-06-14T01:30:36;4.50;;;2.63;;
47635;SDS011;33364;50.766;15.338;2023-06-14T01:33:14;2.95;;;2.60;;
47635;SDS011;33364;50.766;15.338;2023-06-14T01:35:44;4.63;;;2.70;;
47635;SDS011;33364;50.766;15.338;2023-06-14T01:38:15;4.28;;;2.92;;
47635;SDS011;33364;50.766;15.338;2023-06-14T01:40:42;3.50;;;2.58;;
47635;SDS011;33364;50.766;15.338;2023-06-14T01:43:10;3.15;;;2.20;;
47635;SDS011;33364;50.766;15.338;2023-06-14T01:45:40;8.25;;;3.05;;
47635;SDS011;33364;50.766;15.338;2023-06-14T01:48:07;4.90;;;2.75;;
47635;SDS011;33364;50.766;15.338;2023-06-14T01:50:33;3.75;;;2.90;;
47635;SDS011;33364;50.766;15.338;2023-06-14T01:52:59;5.38;;;2.70;;
47635;SDS011;33364;50.766;15.338;2023-06-14T01:55:25;4.45;;;2.65;;
47635;SDS011;33364;50.766;15.338;2023-06-14T01:57:51;4.97;;;3.03;;
47635;SDS011;33364;50.766;15.338;2023-06-14T02:00:17;5.22;;;2.90;;
47635;SDS011;33364;50.766;15.338;2023-06-14T02:02:44;8.32;;;3.13;;
47635;SDS011;33364;50.766;15.338;2023-06-14T02:05:11;3.33;;;2.33;;
47635;SDS011;33364;50.766;15.338;2023-06-14T02:07:37;3.30;;;2.67;;
47635;SDS011;33364;50.766;15.338;2023-06-14T02:10:03;3.92;;;2.70;;
47635;SDS011;33364;50.766;15.338;2023-06-14T02:12:30;3.05;;;2.58;;
47635;SDS011;33364;50.766;15.338;2023-06-14T02:14:56;4.68;;;2.88;;
47635;SDS011;33364;50.766;15.338;2023-06-14T02:17:22;4.68;;;2.92;;
47635;SDS011;33364;50.766;15.338;2023-06-14T02:19:48;3.28;;;2.85;;
47635;SDS011;33364;50.766;15.338;2023-06-14T02:22:14;3.30;;;2.80;;
47635;SDS011;33364;50.766;15.338;2023-06-14T02:24:41;4.18;;;2.60;;
47635;SDS011;33364;50.766;15.338;2023-06-14T02:27:07;4.00;;;2.35;;
47635;SDS011;33364;50.766;15.338;2023-06-14T02:29:35;4.35;;;3.13;;
47635;SDS011;33364;50.766;15.338;2023-06-14T02:32:02;4.72;;;2.80;;
47635;SDS011;33364;50.766;15.338;2023-06-14T02:34:28;3.10;;;2.80;;
47635;SDS011;33364;50.766;15.338;2023-06-14T02:36:54;5.38;;;2.70;;
47635;SDS011;33364;50.766;15.338;2023-06-14T02:39:20;5.18;;;3.40;;
47635;SDS011;33364;50.766;15.338;2023-06-14T02:41:49;3.80;;;3.17;;
47635;SDS011;33364;50.766;15.338;2023-06-14T02:44:17;4.45;;;3.13;;
47635;SDS011;33364;50.766;15.338;2023-06-14T02:46:44;3.92;;;3.05;;
47635;SDS011;33364;50.766;15.338;2023-06-14T02:49:13;10.30;;;4.35;;
47635;SDS011;33364;50.766;15.338;2023-06-14T02:51:39;4.15;;;3.55;;
47635;SDS011;33364;50.766;15.338;2023-06-14T02:54:05;6.35;;;4.03;;
47635;SDS011;33364;50.766;15.338;2023-06-14T02:56:31;5.90;;;4.50;;
47635;SDS011;33364;50.766;15.338;2023-06-14T02:58:57;4.68;;;3.50;;
47635;SDS011;33364;50.766;15.338;2023-06-14T03:01:25;6.70;;;3.63;;
47635;SDS011;33364;50.766;15.338;2023-06-14T03:03:59;4.38;;;3.65;;
47635;SDS011;33364;50.766;15.338;2023-06-14T03:06:29;4.03;;;3.10;;
47635;SDS011;33364;50.766;15.338;2023-06-14T03:08:55;4.97;;;3.55;;
47635;SDS011;33364;50.766;15.338;2023-06-14T03:11:25;5.13;;;3.55;;
47635;SDS011;33364;50.766;15.338;2023-06-14T03:13:51;9.40;;;7.18;;
47635;SDS011;33364;50.766;15.338;2023-06-14T03:16:18;10.40;;;7.07;;
47635;SDS011;33364;50.766;15.338;2023-06-14T03:18:48;55.38;;;22.77;;
47635;SDS011;33364;50.766;15.338;2023-06-14T03:21:14;69.15;;;28.60;;
47635;SDS011;33364;50.766;15.338;2023-06-14T03:23:41;63.25;;;27.33;;
47635;SDS011;33364;50.766;15.338;2023-06-14T03:26:08;54.83;;;27.08;;
47635;SDS011;33364;50.766;15.338;2023-06-14T03:28:33;29.52;;;18.20;;
47635;SDS011;33364;50.766;15.338;2023-06-14T03:31:00;8.00;;;4.60;;
47635;SDS011;33364;50.766;15.338;2023-06-14T03:33:26;5.30;;;3.40;;
47635;SDS011;33364;50.766;15.338;2023-06-14T03:35:52;4.60;;;3.95;;
47635;SDS011;33364;50.766;15.338;2023-06-14T03:38:18;7.68;;;4.70;;
47635;SDS011;33364;50.766;15.338;2023-06-14T03:40:44;6.63;;;3.38;;
47635;SDS011;33364;50.766;15.338;2023-06-14T03:43:10;5.07;;;3.88;;
47635;SDS011;33364;50.766;15.338;2023-06-14T03:45:36;9.68;;;4.13;;
47635;SDS011;33364;50.766;15.338;2023-06-14T03:48:02;6.75;;;4.25;;
47635;SDS011;33364;50.766;15.338;2023-06-14T03:50:28;8.15;;;3.25;;
47635;SDS011;33364;50.766;15.338;2023-06-14T03:52:54;6.07;;;3.58;;
47635;SDS011;33364;50.766;15.338;2023-06-14T03:55:20;6.90;;;4.13;;
47635;SDS011;33364;50.766;15.338;2023-06-14T03:57:46;8.20;;;3.85;;
47635;SDS011;33364;50.766;15.338;2023-06-14T04:00:12;5.35;;;3.47;;
47635;SDS011;33364;50.766;15.338;2023-06-14T04:02:38;5.90;;;3.78;;
47635;SDS011;33364;50.766;15.338;2023-06-14T04:05:04;5.95;;;3.88;;
47635;SDS011;33364;50.766;15.338;2023-06-14T04:07:34;11.55;;;4.35;;
47635;SDS011;33364;50.766;15.338;2023-06-14T04:10:06;5.47;;;3.60;;
47635;SDS011;33364;50.766;15.338;2023-06-14T04:12:33;4.75;;;4.10;;
47635;SDS011;33364;50.766;15.338;2023-06-14T04:14:59;9.07;;;4.53;;
47635;SDS011;33364;50.766;15.338;2023-06-14T04:17:26;9.00;;;4.18;;
47635;SDS011;33364;50.766;15.338;2023-06-14T04:19:52;5.30;;;4.00;;
47635;SDS011;33364;50.766;15.338;2023-06-14T04:22:17;6.45;;;4.60;;
47635;SDS011;33364;50.766;15.338;2023-06-14T04:24:43;6.68;;;5.03;;
47635;SDS011;33364;50.766;15.338;2023-06-14T04:27:10;8.52;;;5.05;;
47635;SDS011;33364;50.766;15.338;2023-06-14T04:29:36;6.55;;;5.10;;
47635;SDS011;33364;50.766;15.338;2023-06-14T04:32:01;4.93;;;3.58;;
47635;SDS011;33364;50.766;15.338;2023-06-14T04:34:28;5.28;;;3.67;;
47635;SDS011;33364;50.766;15.338;2023-06-14T04:36:59;6.40;;;3.85;;
47635;SDS011;33364;50.766;15.338;2023-06-14T04:39:26;6.05;;;4.20;;
47635;SDS011;33364;50.766;15.338;2023-06-14T04:41:53;4.25;;;3.85;;
47635;SDS011;33364;50.766;15.338;2023-06-14T04:44:25;6.05;;;3.78;;
47635;SDS011;33364;50.766;15.338;2023-06-14T04:46:56;4.03;;;3.60;;
47635;SDS011;33364;50.766;15.338;2023-06-14T04:49:24;5.18;;;3.95;;
47635;SDS011;33364;50.766;15.338;2023-06-14T04:51:52;6.15;;;3.20;;
47635;SDS011;33364;50.766;15.338;2023-06-14T04:54:23;5.03;;;3.15;;
47635;SDS011;33364;50.766;15.338;2023-06-14T04:56:50;5.07;;;3.35;;
47635;SDS011;33364;50.766;15.338;2023-06-14T04:59:17;6.15;;;3.35;;
47635;SDS011;33364;50.766;15.338;2023-06-14T05:01:42;8.07;;;3.20;;
47635;SDS011;33364;50.766;15.338;2023-06-14T05:04:14;7.55;;;3.58;;
47635;SDS011;33364;50.766;15.338;2023-06-14T05:06:41;4.45;;;2.67;;
47635;SDS011;33364;50.766;15.338;2023-06-14T05:09:13;4.70;;;3.30;;
47635;SDS011;33364;50.766;15.338;2023-06-14T05:11:41;3.92;;;3.10;;
47635;SDS011;33364;50.766;15.338;2023-06-14T05:14:10;3.20;;;2.90;;
47635;SDS011;33364;50.766;15.338;2023-06-14T05:16:37;5.47;;;2.50;;
47635;SDS011;33364;50.766;15.338;2023-06-14T05:19:03;4.38;;;2.92;;
47635;SDS011;33364;50.766;15.338;2023-06-14T05:21:29;3.80;;;3.20;;
47635;SDS011;33364;50.766;15.338;2023-06-14T05:23:56;3.67;;;2.95;;
47635;SDS011;33364;50.766;15.338;2023-06-14T05:26:21;3.65;;;2.72;;
47635;SDS011;33364;50.766;15.338;2023-06-14T05:28:49;4.25;;;3.00;;
47635;SDS011;33364;50.766;15.338;2023-06-14T05:31:15;4.30;;;3.00;;
47635;SDS011;33364;50.766;15.338;2023-06-14T05:33:41;7.25;;;3.47;;
47635;SDS011;33364;50.766;15.338;2023-06-14T05:36:07;3.25;;;2.60;;
47635;SDS011;33364;50.766;15.338;2023-06-14T05:38:33;4.25;;;2.70;;
47635;SDS011;33364;50.766;15.338;2023-06-14T05:40:58;6.43;;;2.90;;
47635;SDS011;33364;50.766;15.338;2023-06-14T05:43:25;6.00;;;2.92;;
47635;SDS011;33364;50.766;15.338;2023-06-14T05:45:50;4.65;;;3.20;;
47635;SDS011;33364;50.766;15.338;2023-06-14T05:48:16;3.88;;;3.03;;
47635;SDS011;33364;50.766;15.338;2023-06-14T05:50:42;5.57;;;3.00;;
47635;SDS011;33364;50.766;15.338;2023-06-14T05:53:08;3.10;;;2.80;;
47635;SDS011;33364;50.766;15.338;2023-06-14T05:55:33;5.28;;;3.75;;
47635;SDS011;33364;50.766;15.338;2023-06-14T05:57:59;6.68;;;3.85;;
47635;SDS011;33364;50.766;15.338;2023-06-14T06:00:25;6.18;;;3.35;;
47635;SDS011;33364;50.766;15.338;2023-06-14T06:02:52;4.50;;;3.60;;
47635;SDS011;33364;50.766;15.338;2023-06-14T06:05:17;4.22;;;3.50;;
47635;SDS011;33364;50.766;15.338;2023-06-14T06:07:44;9.00;;;3.17;;
47635;SDS011;33364;50.766;15.338;2023-06-14T06:10:10;3.92;;;3.22;;
47635;SDS011;33364;50.766;15.338;2023-06-14T06:12:37;4.10;;;3.40;;
47635;SDS011;33364;50.766;15.338;2023-06-14T06:15:02;4.22;;;3.50;;
47635;SDS011;33364;50.766;15.338;2023-06-14T06:17:29;4.20;;;3.03;;
47635;SDS011;33364;50.766;15.338;2023-06-14T06:19:55;3.58;;;2.78;;
47635;SDS011;33364;50.766;15.338;2023-06-14T06:22:21;3.97;;;3.10;;
47635;SDS011;33364;50.766;15.338;2023-06-14T06:24:46;5.97;;;3.00;;
47635;SDS011;33364;50.766;15.338;2023-06-14T06:27:13;7.32;;;3.35;;
47635;SDS011;33364;50.766;15.338;2023-06-14T06:29:38;5.20;;;3.38;;
47635;SDS011;33364;50.766;15.338;2023-06-14T06:32:04;5.30;;;3.17;;
47635;SDS011;33364;50.766;15.338;2023-06-14T06:34:30;5.60;;;3.30;;
47635;SDS011;33364;50.766;15.338;2023-06-14T06:36:56;4.13;;;3.40;;
47635;SDS011;33364;50.766;15.338;2023-06-14T06:39:22;2.53;;;2.30;;
47635;SDS011;33364;50.766;15.338;2023-06-14T06:41:48;5.18;;;2.92;;
47635;SDS011;33364;50.766;15.338;2023-06-14T06:44:13;3.22;;;2.50;;
47635;SDS011;33364;50.766;15.338;2023-06-14T06:46:39;3.42;;;2.15;;
47635;SDS011;33364;50.766;15.338;2023-06-14T06:49:06;5.40;;;2.15;;
47635;SDS011;33364;50.766;15.338;2023-06-14T06:51:33;3.20;;;1.88;;
47635;SDS011;33364;50.766;15.338;2023-06-14T06:53:59;3.03;;;2.15;;
47635;SDS011;33364;50.766;15.338;2023-06-14T06:56:25;2.80;;;2.20;;
47635;SDS011;33364;50.766;15.338;2023-06-14T06:58:52;3.10;;;2.30;;
47635;SDS011;33364;50.766;15.338;2023-06-14T07:01:18;4.35;;;2.10;;
47635;SDS011;33364;50.766;15.338;2023-06-14T07:03:45;2.78;;;2.08;;
47635;SDS011;33364;50.766;15.338;2023-06-14T07:06:11;3.10;;;2.20;;
47635;SDS011;33364;50.766;15.338;2023-06-14T07:08:37;5.28;;;2.08;;
47635;SDS011;33364;50.766;15.338;2023-06-14T07:11:06;8.43;;;3.17;;
47635;SDS011;33364;50.766;15.338;2023-06-14T07:13:32;2.92;;;2.08;;
47635;SDS011;33364;50.766;15.338;2023-06-14T07:15:59;4.68;;;3.08;;
47635;SDS011;33364;50.766;15.338;2023-06-14T07:18:26;3.65;;;2.83;;
47635;SDS011;33364;50.766;15.338;2023-06-14T07:20:52;3.15;;;2.13;;
47635;SDS011;33364;50.766;15.338;2023-06-14T07:23:19;4.25;;;2.20;;
47635;SDS011;33364;50.766;15.338;2023-06-14T07:25:46;3.15;;;2.20;;
47635;SDS011;33364;50.766;15.338;2023-06-14T07:28:12;4.50;;;2.88;;
47635;SDS011;33364;50.766;15.338;2023-06-14T07:30:38;3.75;;;2.17;;
47635;SDS011;33364;50.766;15.338;2023-06-14T07:33:03;4.47;;;3.28;;
47635;SDS011;33364;50.766;15.338;2023-06-14T07:35:29;3.72;;;2.55;;
47635;SDS011;33364;50.766;15.338;2023-06-14T07:37:55;2.38;;;1.98;;
47635;SDS011;33364;50.766;15.338;2023-06-14T07:40:21;3.00;;;2.15;;
47635;SDS011;33364;50.766;15.338;2023-06-14T07:42:47;4.90;;;3.40;;
47635;SDS011;33364;50.766;15.338;2023-06-14T07:45:13;3.78;;;2.25;;
47635;SDS011;33364;50.766;15.338;2023-06-14T07:47:39;3.50;;;2.17;;
47635;SDS011;33364;50.766;15.338;2023-06-14T07:50:05;6.43;;;2.90;;
47635;SDS011;33364;50.766;15.338;2023-06-14T07:52:31;6.25;;;2.70;;
47635;SDS011;33364;50.766;15.338;2023-06-14T07:54:57;4.35;;;2.47;;
47635;SDS011;33364;50.766;15.338;2023-06-14T07:57:23;3.53;;;2.50;;
47635;SDS011;33364;50.766;15.338;2023-06-14T07:59:49;3.47;;;2.60;;
47635;SDS011;33364;50.766;15.338;2023-06-14T08:02:15;4.60;;;2.55;;
47635;SDS011;33364;50.766;15.338;2023-06-14T08:04:41;3.90;;;2.53;;
47635;SDS011;33364;50.766;15.338;2023-06-14T08:07:07;4.13;;;2.90;;
47635;SDS011;33364;50.766;15.338;2023-06-14T08:09:34;6.05;;;3.47;;
47635;SDS011;33364;50.766;15.338;2023-06-14T08:12:02;5.43;;;3.17;;
47635;SDS011;33364;50.766;15.338;2023-06-14T08:14:30;5.35;;;3.42;;
47635;SDS011;33364;50.766;15.338;2023-06-14T08:16:56;5.47;;;3.55;;
47635;SDS011;33364;50.766;15.338;2023-06-14T08:19:22;5.97;;;3.15;;
47635;SDS011;33364;50.766;15.338;2023-06-14T08:21:48;5.85;;;4.20;;
47635;SDS011;33364;50.766;15.338;2023-06-14T08:24:14;4.50;;;3.20;;
47635;SDS011;33364;50.766;15.338;2023-06-14T08:26:39;5.57;;;3.25;;
47635;SDS011;33364;50.766;15.338;2023-06-14T08:29:06;4.53;;;3.20;;
47635;SDS011;33364;50.766;15.338;2023-06-14T08:31:34;4.78;;;3.28;;
47635;SDS011;33364;50.766;15.338;2023-06-14T08:34:00;6.95;;;3.33;;
47635;SDS011;33364;50.766;15.338;2023-06-14T08:36:26;4.38;;;3.15;;
47635;SDS011;33364;50.766;15.338;2023-06-14T08:38:51;5.47;;;3.40;;
47635;SDS011;33364;50.766;15.338;2023-06-14T08:41:20;4.05;;;3.10;;
47635;SDS011;33364;50.766;15.338;2023-06-14T08:43:49;3.20;;;2.85;;
47635;SDS011;33364;50.766;15.338;2023-06-14T08:46:15;4.43;;;3.17;;
47635;SDS011;33364;50.766;15.338;2023-06-14T08:48:51;5.93;;;3.05;;
47635;SDS011;33364;50.766;15.338;2023-06-14T08:51:20;4.40;;;3.17;;
47635;SDS011;33364;50.766;15.338;2023-06-14T08:53:53;4.45;;;3.10;;
47635;SDS011;33364;50.766;15.338;2023-06-14T08:56:25;4.13;;;3.08;;
47635;SDS011;33364;50.766;15.338;2023-06-14T08:58:53;4.05;;;2.95;;
47635;SDS011;33364;50.766;15.338;2023-06-14T09:01:19;4.28;;;2.90;;
47635;SDS011;33364;50.766;15.338;2023-06-14T09:03:48;5.22;;;3.13;;
47635;SDS011;33364;50.766;15.338;2023-06-14T09:06:14;3.97;;;2.90;;
47635;SDS011;33364;50.766;15.338;2023-06-14T09:08:44;4.53;;;3.47;;
47635;SDS011;33364;50.766;15.338;2023-06-14T09:11:11;3.83;;;3.03;;
47635;SDS011;33364;50.766;15.338;2023-06-14T09:13:39;4.15;;;3.28;;
47635;SDS011;33364;50.766;15.338;2023-06-14T09:16:08;7.50;;;3.47;;
47635;SDS011;33364;50.766;15.338;2023-06-14T09:18:39;5.13;;;3.35;;
47635;SDS011;33364;50.766;15.338;2023-06-14T09:21:10;2.47;;;2.03;;
47635;SDS011;33364;50.766;15.338;2023-06-14T09:23:37;3.90;;;2.97;;
47635;SDS011;33364;50.766;15.338;2023-06-14T09:26:08;6.50;;;3.15;;
47635;SDS011;33364;50.766;15.338;2023-06-14T09:28:35;4.90;;;2.90;;
47635;SDS011;33364;50.766;15.338;2023-06-14T09:31:02;4.22;;;3.25;;
47635;SDS011;33364;50.766;15.338;2023-06-14T09:33:28;4.50;;;3.15;;
47635;SDS011;33364;50.766;15.338;2023-06-14T09:35:54;5.88;;;3.50;;
47635;SDS011;33364;50.766;15.338;2023-06-14T09:38:20;6.03;;;3.00;;
47635;SDS011;33364;50.766;15.338;2023-06-14T09:40:46;5.00;;;3.40;;
47635;SDS011;33364;50.766;15.338;2023-06-14T09:43:12;4.75;;;3.28;;
47635;SDS011;33364;50.766;15.338;2023-06-14T09:45:40;5.85;;;3.67;;
47635;SDS011;33364;50.766;15.338;2023-06-14T09:48:06;5.53;;;2.90;;
47635;SDS011;33364;50.766;15.338;2023-06-14T09:50:33;10.40;;;3.67;;
47635;SDS011;33364;50.766;15.338;2023-06-14T09:53:07;7.53;;;3.63;;
47635;SDS011;33364;50.766;15.338;2023-06-14T09:55:35;10.00;;;5.30;;
47635;SDS011;33364;50.766;15.338;2023-06-14T09:58:06;5.55;;;4.10;;
47635;SDS011;33364;50.766;15.338;2023-06-14T10:00:33;5.43;;;3.80;;
47635;SDS011;33364;50.766;15.338;2023-06-14T10:03:02;5.30;;;3.20;;
47635;SDS011;33364;50.766;15.338;2023-06-14T10:05:31;5.22;;;3.00;;
47635;SDS011;33364;50.766;15.338;2023-06-14T10:08:04;5.40;;;3.13;;
47635;SDS011;33364;50.766;15.338;2023-06-14T10:10:33;3.28;;;2.70;;
47635;SDS011;33364;50.766;15.338;2023-06-14T10:12:59;9.30;;;4.60;;
47635;SDS011;33364;50.766;15.338;2023-06-14T10:15:37;4.25;;;3.10;;
47635;SDS011;33364;50.766;15.338;2023-06-14T10:23:41;4.78;;;3.80;;
47635;SDS011;33364;50.766;15.338;2023-06-14T10:26:13;4.93;;;4.43;;
47635;SDS011;33364;50.766;15.338;2023-06-14T10:28:44;7.55;;;5.63;;
47635;SDS011;33364;50.766;15.338;2023-06-14T10:31:22;7.18;;;5.72;;
47635;SDS011;33364;50.766;15.338;2023-06-14T10:33:48;5.28;;;4.65;;
47635;SDS011;33364;50.766;15.338;2023-06-14T10:39:05;8.60;;;7.15;;
47635;SDS011;33364;50.766;15.338;2023-06-14T10:41:42;8.20;;;5.80;;
47635;SDS011;33364;50.766;15.338;2023-06-14T10:46:46;10.73;;;8.43;;
47635;SDS011;33364;50.766;15.338;2023-06-14T10:49:16;34.63;;;24.67;;
47635;SDS011;33364;50.766;15.338;2023-06-14T10:51:45;9.60;;;7.88;;
47635;SDS011;33364;50.766;15.338;2023-06-14T10:54:16;8.07;;;6.65;;
47635;SDS011;33364;50.766;15.338;2023-06-14T10:56:48;9.13;;;7.90;;
47635;SDS011;33364;50.766;15.338;2023-06-14T10:59:15;13.18;;;11.35;;
47635;SDS011;33364;50.766;15.338;2023-06-14T11:04:48;7.63;;;6.82;;
47635;SDS011;33364;50.766;15.338;2023-06-14T11:10:39;7.25;;;5.90;;
47635;SDS011;33364;50.766;15.338;2023-06-14T11:13:09;5.68;;;5.15;;
47635;SDS011;33364;50.766;15.338;2023-06-14T11:15:35;6.28;;;5.30;;
47635;SDS011;33364;50.766;15.338;2023-06-14T11:18:08;5.95;;;5.10;;
47635;SDS011;33364;50.766;15.338;2023-06-14T11:20:37;6.53;;;5.80;;
47635;SDS011;33364;50.766;15.338;2023-06-14T11:23:03;6.15;;;4.90;;
47635;SDS011;33364;50.766;15.338;2023-06-14T11:25:30;6.30;;;5.63;;
47635;SDS011;33364;50.766;15.338;2023-06-14T11:27:56;8.73;;;6.40;;
47635;SDS011;33364;50.766;15.338;2023-06-14T11:30:23;14.55;;;9.68;;
47635;SDS011;33364;50.766;15.338;2023-06-14T11:32:49;8.48;;;7.25;;
47635;SDS011;33364;50.766;15.338;2023-06-14T11:35:17;6.13;;;5.40;;
47635;SDS011;33364;50.766;15.338;2023-06-14T11:37:44;6.05;;;5.20;;
47635;SDS011;33364;50.766;15.338;2023-06-14T11:40:10;7.03;;;5.95;;
47635;SDS011;33364;50.766;15.338;2023-06-14T11:42:38;10.75;;;9.82;;
47635;SDS011;33364;50.766;15.338;2023-06-14T11:45:08;5.30;;;4.60;;
47635;SDS011;33364;50.766;15.338;2023-06-14T11:47:38;6.35;;;4.57;;
47635;SDS011;33364;50.766;15.338;2023-06-14T11:50:08;7.65;;;6.95;;
47635;SDS011;33364;50.766;15.338;2023-06-14T11:52:36;4.60;;;4.18;;
47635;SDS011;33364;50.766;15.338;2023-06-14T11:55:03;4.53;;;4.05;;
47635;SDS011;33364;50.766;15.338;2023-06-14T11:57:35;11.43;;;5.68;;
47635;SDS011;33364;50.766;15.338;2023-06-14T12:00:08;4.43;;;4.03;;
47635;SDS011;33364;50.766;15.338;2023-06-14T12:02:37;5.13;;;4.05;;
47635;SDS011;33364;50.766;15.338;2023-06-14T12:05:05;4.47;;;4.05;;
47635;SDS011;33364;50.766;15.338;2023-06-14T12:07:38;5.68;;;4.70;;
47635;SDS011;33364;50.766;15.338;2023-06-14T12:10:07;7.32;;;5.45;;
47635;SDS011;33364;50.766;15.338;2023-06-14T12:12:36;5.03;;;4.22;;
47635;SDS011;33364;50.766;15.338;2023-06-14T12:15:04;7.20;;;6.40;;
47635;SDS011;33364;50.766;15.338;2023-06-14T12:17:31;10.20;;;4.85;;
47635;SDS011;33364;50.766;15.338;2023-06-14T12:19:59;6.05;;;5.00;;
47635;SDS011;33364;50.766;15.338;2023-06-14T12:22:51;6.85;;;5.13;;
47635;SDS011;33364;50.766;15.338;2023-06-14T12:25:32;5.93;;;4.60;;
47635;SDS011;33364;50.766;15.338;2023-06-14T12:28:08;8.45;;;5.47;;
47635;SDS011;33364;50.766;15.338;2023-06-14T12:30:36;7.63;;;6.93;;
47635;SDS011;33364;50.766;15.338;2023-06-14T12:33:05;8.13;;;5.95;;
47635;SDS011;33364;50.766;15.338;2023-06-14T12:35:31;5.28;;;4.70;;
47635;SDS011;33364;50.766;15.338;2023-06-14T12:37:57;6.25;;;5.65;;
47635;SDS011;33364;50.766;15.338;2023-06-14T12:40:23;6.80;;;5.10;;
47635;SDS011;33364;50.766;15.338;2023-06-14T12:42:48;4.85;;;4.35;;
47635;SDS011;33364;50.766;15.338;2023-06-14T12:45:15;6.40;;;5.80;;
47635;SDS011;33364;50.766;15.338;2023-06-14T12:47:41;5.60;;;5.00;;
47635;SDS011;33364;50.766;15.338;2023-06-14T12:50:07;6.70;;;4.75;;
47635;SDS011;33364;50.766;15.338;2023-06-14T12:52:33;5.85;;;5.20;;
47635;SDS011;33364;50.766;15.338;2023-06-14T12:55:02;8.90;;;5.85;;
47635;SDS011;33364;50.766;15.338;2023-06-14T12:57:28;6.30;;;5.65;;
47635;SDS011;33364;50.766;15.338;2023-06-14T12:59:54;6.40;;;4.93;;
47635;SDS011;33364;50.766;15.338;2023-06-14T13:02:20;6.43;;;5.70;;
47635;SDS011;33364;50.766;15.338;2023-06-14T13:04:47;5.93;;;5.05;;
47635;SDS011;33364;50.766;15.338;2023-06-14T13:07:13;5.40;;;4.57;;
47635;SDS011;33364;50.766;15.338;2023-06-14T13:09:40;4.85;;;4.25;;
47635;SDS011;33364;50.766;15.338;2023-06-14T13:12:07;4.75;;;4.25;;
47635;SDS011;33364;50.766;15.338;2023-06-14T13:14:36;5.55;;;4.82;;
47635;SDS011;33364;50.766;15.338;2023-06-14T13:17:02;10.25;;;4.93;;
47635;SDS011;33364;50.766;15.338;2023-06-14T13:19:28;5.15;;;4.65;;
47635;SDS011;33364;50.766;15.338;2023-06-14T13:21:53;7.50;;;5.32;;
47635;SDS011;33364;50.766;15.338;2023-06-14T13:24:19;8.18;;;6.45;;
47635;SDS011;33364;50.766;15.338;2023-06-14T13:26:45;11.10;;;7.40;;
47635;SDS011;33364;50.766;15.338;2023-06-14T13:29:11;5.60;;;4.70;;
47635;SDS011;33364;50.766;15.338;2023-06-14T13:31:37;6.43;;;4.53;;
47635;SDS011;33364;50.766;15.338;2023-06-14T13:34:03;7.13;;;4.45;;
47635;SDS011;33364;50.766;15.338;2023-06-14T13:36:29;5.63;;;4.10;;
47635;SDS011;33364;50.766;15.338;2023-06-14T13:38:55;13.63;;;11.82;;
47635;SDS011;33364;50.766;15.338;2023-06-14T13:41:21;8.07;;;7.22;;
47635;SDS011;33364;50.766;15.338;2023-06-14T13:43:47;5.25;;;4.75;;
47635;SDS011;33364;50.766;15.338;2023-06-14T13:46:12;5.03;;;3.72;;
47635;SDS011;33364;50.766;15.338;2023-06-14T13:48:38;8.63;;;7.80;;
47635;SDS011;33364;50.766;15.338;2023-06-14T13:51:04;8.32;;;4.70;;
47635;SDS011;33364;50.766;15.338;2023-06-14T13:53:30;5.72;;;4.15;;
47635;SDS011;33364;50.766;15.338;2023-06-14T13:55:56;5.25;;;4.38;;
47635;SDS011;33364;50.766;15.338;2023-06-14T13:58:22;5.82;;;4.43;;
47635;SDS011;33364;50.766;15.338;2023-06-14T14:00:49;5.55;;;4.28;;
47635;SDS011;33364;50.766;15.338;2023-06-14T14:03:15;4.75;;;4.10;;
47635;SDS011;33364;50.766;15.338;2023-06-14T14:05:41;5.13;;;3.90;;
47635;SDS011;33364;50.766;15.338;2023-06-14T14:08:07;4.00;;;3.60;;
47635;SDS011;33364;50.766;15.338;2023-06-14T14:10:32;4.70;;;4.25;;
47635;SDS011;33364;50.766;15.338;2023-06-14T14:12:58;8.00;;;3.85;;
47635;SDS011;33364;50.766;15.338;2023-06-14T14:15:25;4.93;;;4.40;;
47635;SDS011;33364;50.766;15.338;2023-06-14T14:17:51;4.82;;;4.18;;
47635;SDS011;33364;50.766;15.338;2023-06-14T14:20:19;6.63;;;4.70;;
47635;SDS011;33364;50.766;15.338;2023-06-14T14:22:45;5.82;;;4.88;;
47635;SDS011;33364;50.766;15.338;2023-06-14T14:25:11;6.90;;;4.53;;
47635;SDS011;33364;50.766;15.338;2023-06-14T14:27:36;9.93;;;4.82;;
47635;SDS011;33364;50.766;15.338;2023-06-14T14:30:03;6.55;;;4.55;;
47635;SDS011;33364;50.766;15.338;2023-06-14T14:32:30;6.70;;;4.43;;
47635;SDS011;33364;50.766;15.338;2023-06-14T14:34:55;5.63;;;5.03;;
47635;SDS011;33364;50.766;15.338;2023-06-14T14:37:21;5.78;;;4.78;;
47635;SDS011;33364;50.766;15.338;2023-06-14T14:39:47;8.52;;;4.78;;
47635;SDS011;33364;50.766;15.338;2023-06-14T14:42:13;5.43;;;4.32;;
47635;SDS011;33364;50.766;15.338;2023-06-14T14:44:38;7.82;;;4.93;;
47635;SDS011;33364;50.766;15.338;2023-06-14T14:47:05;6.45;;;5.35;;
47635;SDS011;33364;50.766;15.338;2023-06-14T14:49:31;12.32;;;9.02;;
47635;SDS011;33364;50.766;15.338;2023-06-14T14:51:57;6.68;;;4.80;;
47635;SDS011;33364;50.766;15.338;2023-06-14T14:54:23;8.20;;;5.85;;
47635;SDS011;33364;50.766;15.338;2023-06-14T14:56:51;7.22;;;6.47;;
47635;SDS011;33364;50.766;15.338;2023-06-14T14:59:16;7.57;;;5.45;;